Time;durP1;ratioP1;P1;durP2;ratioP2;P2;SDS_P1;SDS_P2;PMS_P1;PMS_P2;Temp;Humidity;BMP_temperature;BMP_pressure;BME280_temperature;BME280_humidity;BME280_pressure;Samples;Min_cycle;Max_cycle;Signal;HPM_P1;HPM_P2
2023/09/10 00:00:21;;;;;;;13.90;12.47;;;;;;;22.55;61.82;96413.56;4969615;28;20500;-71
2023/09/10 00:02:46;;;;;;;12.80;11.60;;;;;;;22.59;61.87;96412.31;4968853;28;20197;-72
2023/09/10 00:05:11;;;;;;;14.63;13.07;;;;;;;22.51;62.01;96412.19;4969465;28;20902;-71
2023/09/10 00:07:37;;;;;;;14.13;12.80;;;;;;;22.48;62.19;96415.13;4968365;28;20266;-70
2023/09/10 00:10:02;;;;;;;15.07;11.73;;;;;;;22.43;62.33;96414.72;4968384;28;20181;-71
2023/09/10 00:12:28;;;;;;;14.73;12.60;;;;;;;22.35;62.53;96409.22;4967159;28;20173;-71
2023/09/10 00:14:53;;;;;;;22.10;12.97;;;;;;;22.31;62.75;96405.13;4969640;28;20197;-71
2023/09/10 00:17:19;;;;;;;13.07;11.67;;;;;;;22.25;62.92;96414.53;4969966;28;20228;-71
2023/09/10 00:19:44;;;;;;;14.43;12.60;;;;;;;22.30;62.78;96409.66;4966212;28;20220;-72
2023/09/10 00:22:09;;;;;;;16.27;12.20;;;;;;;22.17;63.18;96409.88;4971227;28;20700;-71
2023/09/10 00:24:35;;;;;;;14.43;12.10;;;;;;;22.27;62.81;96409.06;4975543;28;20177;-70
2023/09/10 00:27:01;;;;;;;13.20;11.97;;;;;;;22.23;62.78;96415.66;4969932;28;20240;-71
2023/09/10 00:29:26;;;;;;;13.30;11.90;;;;;;;22.19;62.99;96418.59;4965120;28;20184;-71
2023/09/10 00:31:52;;;;;;;15.10;12.20;;;;;;;22.12;63.18;96417.47;4968045;28;20338;-70
2023/09/10 00:34:17;;;;;;;14.23;12.80;;;;;;;22.09;63.47;96415.06;4966750;28;20272;-71
2023/09/10 00:36:43;;;;;;;14.87;12.33;;;;;;;22.05;63.40;96416.31;4965733;28;20272;-71
2023/09/10 00:39:08;;;;;;;13.17;11.17;;;;;;;22.01;63.53;96420.25;4970435;28;20182;-71
2023/09/10 00:41:34;;;;;;;18.27;12.97;;;;;;;21.98;63.61;96417.88;4969243;28;20255;-70
2023/09/10 00:43:59;;;;;;;14.80;12.27;;;;;;;21.86;64.01;96413.63;4967757;28;20176;-71
2023/09/10 00:46:25;;;;;;;16.87;12.90;;;;;;;21.92;63.82;96411.25;4968239;28;20839;-71
2023/09/10 00:48:50;;;;;;;14.63;11.53;;;;;;;21.93;63.87;96414.75;4968224;28;20161;-71
2023/09/10 00:51:16;;;;;;;15.57;13.97;;;;;;;21.87;63.79;96410.78;4968845;28;20170;-70
2023/09/10 00:53:42;;;;;;;16.10;12.83;;;;;;;21.88;63.82;96411.66;4968501;28;20174;-71
2023/09/10 00:56:09;;;;;;;21.57;12.23;;;;;;;21.87;63.89;96410.78;4968675;28;20197;-71
2023/09/10 00:58:34;;;;;;;14.57;13.07;;;;;;;21.83;63.76;96408.53;4968480;28;20451;-71
2023/09/10 01:01:00;;;;;;;16.77;13.50;;;;;;;21.80;64.01;96408.81;4968489;28;20437;-70
2023/09/10 01:03:27;;;;;;;12.97;11.73;;;;;;;21.84;63.90;96410.25;4967465;28;20232;-71
2023/09/10 01:05:52;;;;;;;14.07;12.57;;;;;;;21.77;64.07;96402.75;4968087;28;20224;-70
2023/09/10 01:08:18;;;;;;;13.93;12.63;;;;;;;21.68;64.36;96408.91;4967788;28;20436;-70
2023/09/10 01:10:54;;;;;;;13.30;12.03;;;;;;;21.61;64.49;96410.44;4967630;28;20741;-71
2023/09/10 01:13:46;;;;;;;13.57;12.17;;;;;;;21.68;64.12;96411.59;4967398;28;20551;-71
2023/09/10 01:16:20;;;;;;;15.83;11.40;;;;;;;21.71;63.97;96410.50;4957458;28;20456;-71
2023/09/10 01:18:48;;;;;;;17.60;13.50;;;;;;;21.76;63.91;96417.13;4967302;28;20491;-71
2023/09/10 01:21:38;;;;;;;12.90;11.60;;;;;;;21.71;63.95;96422.03;4967514;28;20776;-71
2023/09/10 01:24:44;;;;;;;14.73;13.20;;;;;;;21.68;63.96;96418.75;4967070;28;20413;-71
2023/09/10 01:27:09;;;;;;;13.20;12.03;;;;;;;21.73;64.08;96417.41;4967257;28;20429;-71
2023/09/10 01:29:34;;;;;;;13.60;12.20;;;;;;;21.74;63.75;96412.88;4967345;28;20791;-70
2023/09/10 01:32:04;;;;;;;16.13;12.63;;;;;;;21.70;64.01;96414.13;4967452;28;20249;-71
2023/09/10 01:34:38;;;;;;;13.77;12.47;;;;;;;21.54;64.33;96419.97;4967492;28;20182;-69
2023/09/10 01:37:18;;;;;;;16.60;12.63;;;;;;;21.54;64.32;96411.97;4967320;28;20524;-69
2023/09/10 01:39:46;;;;;;;14.47;13.07;;;;;;;21.52;64.46;96412.13;4967474;28;20775;-71
2023/09/10 01:42:12;;;;;;;17.83;13.80;;;;;;;21.49;64.47;96420.38;4970194;28;21183;-71
2023/09/10 01:44:41;;;;;;;14.37;12.10;;;;;;;21.48;64.75;96412.53;4977416;28;20455;-70
2023/09/10 01:47:07;;;;;;;13.90;12.57;;;;;;;21.64;64.08;96412.88;4970110;28;20448;-71
2023/09/10 01:49:32;;;;;;;15.07;12.23;;;;;;;21.52;64.01;96416.59;4974271;28;20436;-71
2023/09/10 01:51:58;;;;;;;13.00;11.80;;;;;;;21.51;64.51;96414.91;4973633;28;20443;-71
2023/09/10 01:54:23;;;;;;;15.63;13.87;;;;;;;21.38;64.79;96415.13;4979021;28;20178;-70
2023/09/10 01:56:49;;;;;;;14.80;12.93;;;;;;;21.37;64.92;96410.75;4970368;28;20807;-71
2023/09/10 01:59:14;;;;;;;14.60;13.03;;;;;;;21.42;64.67;96419.22;4970318;28;20170;-70
2023/09/10 02:01:40;;;;;;;15.33;12.43;;;;;;;21.35;64.84;96420.69;4970456;28;20204;-70
2023/09/10 02:04:05;;;;;;;16.30;13.87;;;;;;;21.42;64.57;96421.06;4970046;28;20181;-72
2023/09/10 02:06:31;;;;;;;14.60;13.10;;;;;;;21.14;65.48;96418.94;4970306;28;20190;-72
2023/09/10 02:08:56;;;;;;;20.70;12.60;;;;;;;21.19;65.15;96423.00;4970319;28;20184;-71
2023/09/10 02:11:21;;;;;;;14.27;12.97;;;;;;;21.27;64.76;96420.53;4969014;28;20383;-70
2023/09/10 02:13:47;;;;;;;14.80;11.90;;;;;;;21.31;64.81;96417.47;4970331;28;20692;-70
2023/09/10 02:16:12;;;;;;;15.07;12.70;;;;;;;21.34;64.51;96409.19;4970703;28;20205;-70
2023/09/10 02:18:38;;;;;;;12.57;11.27;;;;;;;21.34;64.67;96413.69;4970674;28;20674;-71
2023/09/10 02:21:10;;;;;;;14.00;12.40;;;;;;;21.36;64.41;96417.91;4970520;28;20193;-71
2023/09/10 02:23:36;;;;;;;14.03;12.33;;;;;;;21.33;64.52;96418.19;4970606;28;20202;-72
2023/09/10 02:26:02;;;;;;;15.40;13.93;;;;;;;21.08;65.04;96421.28;4970559;28;20493;-70
2023/09/10 02:28:27;;;;;;;14.03;12.10;;;;;;;21.11;65.14;96410.34;4970687;28;21074;-71
2023/09/10 02:30:53;;;;;;;14.53;13.13;;;;;;;21.14;65.30;96412.72;4970367;28;20173;-70
2023/09/10 02:33:18;;;;;;;13.40;12.20;;;;;;;21.08;65.21;96416.78;4970068;28;20208;-71
2023/09/10 02:35:44;;;;;;;17.37;12.57;;;;;;;21.01;65.65;96412.13;4970040;28;20169;-71
2023/09/10 02:38:09;;;;;;;12.80;11.60;;;;;;;20.92;65.87;96417.25;4970366;28;20661;-70
2023/09/10 02:40:35;;;;;;;16.53;14.80;;;;;;;21.01;65.80;96420.13;4970216;28;20174;-70
2023/09/10 02:43:00;;;;;;;17.03;12.63;;;;;;;20.87;66.08;96424.78;4969511;28;20600;-71
2023/09/10 02:45:25;;;;;;;15.23;13.63;;;;;;;20.86;66.05;96423.13;4969827;28;20288;-71
2023/09/10 02:47:51;;;;;;;12.90;11.60;;;;;;;20.82;65.93;96416.34;4969728;28;20173;-71
2023/09/10 02:50:16;;;;;;;15.20;12.73;;;;;;;20.86;65.89;96417.78;4969598;28;20181;-70
2023/09/10 02:52:41;;;;;;;14.33;12.90;;;;;;;20.93;65.50;96416.28;4969982;28;20671;-71
2023/09/10 02:55:07;;;;;;;14.30;12.80;;;;;;;20.94;65.60;96431.31;4969436;28;20180;-70
2023/09/10 02:57:32;;;;;;;16.53;13.10;;;;;;;20.98;65.25;96421.22;4971022;28;20205;-70
2023/09/10 02:59:58;;;;;;;13.00;11.70;;;;;;;21.05;64.96;96417.06;4967499;28;20188;-71
2023/09/10 03:02:23;;;;;;;15.00;11.80;;;;;;;20.87;65.59;96414.13;4968487;28;20209;-71
2023/09/10 03:04:49;;;;;;;13.83;12.63;;;;;;;20.85;65.46;96424.06;4969282;28;20214;-71
2023/09/10 03:07:14;;;;;;;14.93;11.50;;;;;;;20.87;65.22;96423.97;4969544;28;20437;-71
2023/09/10 03:09:39;;;;;;;12.90;11.57;;;;;;;20.85;65.25;96420.56;4969966;28;20264;-71
2023/09/10 03:12:26;;;;;;;14.73;11.97;;;;;;;20.82;65.55;96416.34;4969781;28;20232;-71
2023/09/10 03:14:52;;;;;;;14.07;12.73;;;;;;;20.82;65.52;96420.84;4969254;28;20200;-70
2023/09/10 03:17:18;;;;;;;16.67;13.80;;;;;;;20.98;64.81;96410.56;4969633;28;21037;-71
2023/09/10 03:19:44;;;;;;;15.53;13.37;;;;;;;21.03;64.55;96412.81;4975479;28;20168;-70
2023/09/10 03:22:10;;;;;;;18.40;13.10;;;;;;;20.96;64.74;96417.00;4990782;28;20468;-70
2023/09/10 03:24:37;;;;;;;15.93;12.77;;;;;;;20.88;64.86;96412.28;4971895;28;20413;-70
2023/09/10 03:27:02;;;;;;;18.63;13.20;;;;;;;20.86;64.94;96412.44;4970169;28;20596;-72
2023/09/10 03:29:28;;;;;;;15.00;13.27;;;;;;;20.96;64.49;96417.84;4969406;28;20453;-71
2023/09/10 03:31:53;;;;;;;14.17;12.60;;;;;;;20.96;64.27;96415.16;4967897;28;20162;-71
2023/09/10 03:34:20;;;;;;;16.33;13.40;;;;;;;20.99;63.98;96416.72;4969120;28;20245;-71
2023/09/10 03:36:45;;;;;;;15.97;13.27;;;;;;;21.00;63.92;96418.41;4969290;28;20193;-71
2023/09/10 03:39:11;;;;;;;14.63;13.27;;;;;;;21.03;63.95;96418.16;4969112;28;20929;-71
2023/09/10 03:41:36;;;;;;;13.70;12.30;;;;;;;21.01;64.10;96412.94;4968940;28;20247;-71
2023/09/10 03:44:02;;;;;;;16.80;14.37;;;;;;;20.96;64.06;96407.16;4975129;28;20204;-70
2023/09/10 03:46:27;;;;;;;15.10;13.10;;;;;;;20.98;63.54;96410.56;4984557;28;20255;-70
2023/09/10 03:48:53;;;;;;;17.27;13.60;;;;;;;20.92;64.16;96413.72;4985871;28;20421;-70
2023/09/10 03:51:18;;;;;;;17.00;12.50;;;;;;;20.93;64.01;96410.94;4977835;28;20271;-71
2023/09/10 03:53:44;;;;;;;17.73;13.53;;;;;;;20.83;64.28;96407.34;4969289;28;20177;-71
2023/09/10 03:56:09;;;;;;;14.43;13.00;;;;;;;20.85;64.18;96415.22;4971681;28;20193;-71
2023/09/10 03:58:34;;;;;;;16.50;13.10;;;;;;;20.82;64.53;96416.34;4975337;28;20173;-71
2023/09/10 04:01:00;;;;;;;19.63;14.23;;;;;;;20.98;65.16;96412.38;4979924;28;20691;-70
2023/09/10 04:03:26;;;;;;;12.40;10.93;;;;;;;21.39;63.24;96411.47;4977333;28;20205;-70
2023/09/10 04:05:54;;;;;;;14.07;12.37;;;;;;;21.66;62.29;96405.56;4978505;28;20201;-70
2023/09/10 04:08:19;;;;;;;16.73;12.70;;;;;;;21.69;62.21;96410.63;4971356;28;20172;-69
2023/09/10 04:10:45;;;;;;;15.80;12.00;;;;;;;21.74;62.95;96416.41;4969374;28;20492;-69
2023/09/10 04:13:10;;;;;;;15.00;12.70;;;;;;;21.77;62.11;96413.44;4972163;28;20193;-69
2023/09/10 04:15:36;;;;;;;16.87;11.50;;;;;;;21.81;62.29;96415.88;4968850;28;20273;-69
2023/09/10 04:18:04;;;;;;;15.33;13.90;;;;;;;21.63;62.25;96410.31;4973311;28;20187;-69
2023/09/10 04:20:29;;;;;;;15.33;13.27;;;;;;;21.71;61.73;96418.50;4969047;28;20205;-70
2023/09/10 04:22:55;;;;;;;12.53;11.00;;;;;;;21.80;61.37;96419.50;4967874;28;20472;-69
2023/09/10 04:25:20;;;;;;;15.87;11.97;;;;;;;21.66;61.66;96423.38;4968174;28;20224;-70
2023/09/10 04:27:45;;;;;;;20.97;11.43;;;;;;;21.55;61.65;96421.69;4967943;28;20338;-70
2023/09/10 04:30:11;;;;;;;21.00;13.13;;;;;;;21.40;62.19;96417.66;4967923;28;20179;-70
2023/09/10 04:32:36;;;;;;;13.60;12.33;;;;;;;21.47;62.00;96421.50;4967872;28;20181;-70
2023/09/10 04:35:04;;;;;;;13.07;11.77;;;;;;;21.54;61.97;96420.84;4967880;28;20505;-70
2023/09/10 04:37:30;;;;;;;13.10;11.80;;;;;;;21.58;62.26;96424.06;4967583;28;20753;-70
2023/09/10 04:39:55;;;;;;;17.47;12.33;;;;;;;21.47;61.97;96429.50;4967940;28;20413;-71
2023/09/10 04:42:21;;;;;;;12.73;11.27;;;;;;;21.31;62.43;96425.47;4967902;28;20216;-71
2023/09/10 04:44:48;;;;;;;18.63;13.30;;;;;;;21.33;62.65;96431.53;4968609;28;20642;-70
2023/09/10 04:47:13;;;;;;;13.00;11.67;;;;;;;21.57;62.54;96419.72;4969481;28;20209;-69
2023/09/10 04:49:39;;;;;;;15.60;12.60;;;;;;;21.58;61.90;96429.41;4967924;28;21013;-71
2023/09/10 04:52:04;;;;;;;14.10;12.30;;;;;;;21.48;61.43;96433.88;4967677;28;20645;-70
2023/09/10 04:54:30;;;;;;;14.07;12.57;;;;;;;21.43;61.66;96428.94;4967343;28;20216;-69
2023/09/10 04:56:55;;;;;;;24.23;13.73;;;;;;;21.53;61.46;96432.47;4967617;28;20194;-70
2023/09/10 04:59:21;;;;;;;13.93;12.20;;;;;;;21.67;61.27;96433.09;4967618;28;20202;-70
2023/09/10 05:01:46;;;;;;;13.90;12.40;;;;;;;21.57;61.06;96427.72;4967850;28;20212;-70
2023/09/10 05:04:12;;;;;;;16.53;11.97;;;;;;;21.68;61.26;96434.78;4967450;28;20612;-69
2023/09/10 05:06:37;;;;;;;13.40;12.07;;;;;;;21.74;60.98;96439.59;4967565;28;20260;-69
2023/09/10 05:09:03;;;;;;;12.57;11.17;;;;;;;21.53;61.53;96434.31;4970178;28;20660;-69
2023/09/10 05:11:28;;;;;;;15.70;13.07;;;;;;;21.66;60.57;96442.94;4968649;28;20185;-69
2023/09/10 05:13:54;;;;;;;14.73;13.20;;;;;;;21.68;60.46;96435.63;4974519;28;20185;-71
2023/09/10 05:16:19;;;;;;;16.43;13.80;;;;;;;21.65;60.56;96443.06;4976915;28;20209;-70
2023/09/10 05:18:44;;;;;;;15.33;13.77;;;;;;;21.52;60.86;96446.81;4966515;28;20269;-70
2023/09/10 05:21:10;;;;;;;15.27;12.33;;;;;;;21.62;60.91;96446.88;4968400;28;20182;-70
2023/09/10 05:23:35;;;;;;;19.47;12.70;;;;;;;21.68;60.63;96445.47;4970701;28;20297;-70
2023/09/10 05:26:02;;;;;;;30.27;14.03;;;;;;;21.67;60.63;96444.63;4971226;28;20636;-70
2023/09/10 05:28:29;;;;;;;14.60;12.50;;;;;;;21.64;60.93;96452.91;4971066;28;20184;-70
2023/09/10 05:30:54;;;;;;;14.90;13.00;;;;;;;21.77;60.60;96447.34;4971063;28;20416;-70
2023/09/10 05:33:20;;;;;;;14.23;12.83;;;;;;;21.51;61.12;96445.13;4970808;28;20416;-71
2023/09/10 05:35:58;;;;;;;14.13;12.60;;;;;;;21.71;60.99;96447.91;4970983;28;20325;-70
2023/09/10 05:38:24;;;;;;;17.10;12.07;;;;;;;21.85;60.35;96443.97;4971098;28;20178;-70
2023/09/10 05:40:51;;;;;;;12.63;10.97;;;;;;;22.79;57.73;96444.41;4971251;28;20961;-70
2023/09/10 05:43:16;;;;;;;13.47;12.17;;;;;;;23.67;54.88;96450.44;4970995;28;20461;-70
2023/09/10 05:45:42;;;;;;;12.73;11.40;;;;;;;24.27;52.88;96440.13;4970666;28;20463;-70
2023/09/10 05:48:07;;;;;;;14.37;12.40;;;;;;;24.93;50.87;96438.91;4971091;28;20211;-69
2023/09/10 05:50:32;;;;;;;12.80;11.50;;;;;;;25.21;50.29;96440.69;4971795;28;20177;-70
2023/09/10 05:52:59;;;;;;;13.20;10.40;;;;;;;25.89;48.40;96443.44;4971425;28;20578;-70
2023/09/10 05:55:25;;;;;;;11.23;10.13;;;;;;;26.31;47.44;96434.47;4971613;28;20252;-71
2023/09/10 05:57:52;;;;;;;12.53;11.00;;;;;;;26.63;46.46;96435.59;4971171;28;20499;-71
2023/09/10 06:00:18;;;;;;;14.40;12.30;;;;;;;26.91;45.24;96440.66;4968884;28;20428;-70
2023/09/10 06:02:43;;;;;;;12.90;11.47;;;;;;;27.15;45.01;96432.56;4965475;28;20542;-69
2023/09/10 06:05:08;;;;;;;16.63;12.33;;;;;;;27.45;44.23;96438.28;4968455;28;20259;-70
2023/09/10 06:07:34;;;;;;;79.13;20.13;;;;;;;27.78;43.39;96439.03;4968982;28;20207;-70
2023/09/10 06:09:59;;;;;;;46.50;14.43;;;;;;;27.86;43.25;96438.19;4963461;28;20201;-71
2023/09/10 06:12:24;;;;;;;22.97;10.60;;;;;;;27.96;42.58;96433.41;4969204;28;20177;-69
2023/09/10 06:14:50;;;;;;;19.80;12.20;;;;;;;28.39;42.18;96433.84;4969852;28;20192;-69
2023/09/10 06:17:15;;;;;;;16.53;11.97;;;;;;;28.35;42.20;96437.09;4969737;28;20743;-70
2023/09/10 06:19:40;;;;;;;23.60;13.50;;;;;;;28.37;42.20;96437.75;4969923;28;20180;-69
2023/09/10 06:22:06;;;;;;;20.87;12.13;;;;;;;28.46;42.44;96432.16;4969434;28;20287;-69
2023/09/10 06:24:31;;;;;;;21.13;11.53;;;;;;;28.29;42.74;96442.19;4968860;28;20592;-72
2023/09/10 06:26:57;;;;;;;13.43;12.23;;;;;;;28.18;43.17;96442.59;4969335;28;20288;-69
2023/09/10 06:29:22;;;;;;;13.97;12.60;;;;;;;27.81;43.80;96438.66;4969810;28;20173;-69
2023/09/10 06:31:47;;;;;;;14.00;12.80;;;;;;;27.69;44.33;96442.75;4967953;28;20173;-69
2023/09/10 06:34:13;;;;;;;14.23;12.90;;;;;;;27.67;44.36;96434.00;4968296;28;20231;-69
2023/09/10 06:36:38;;;;;;;16.10;14.00;;;;;;;27.45;45.06;96440.97;4969494;28;20189;-69
2023/09/10 06:39:04;;;;;;;35.13;14.00;;;;;;;27.61;44.60;96446.31;4969340;28;20232;-69
2023/09/10 06:41:29;;;;;;;40.33;15.00;;;;;;;28.02;44.33;96442.69;4969062;28;20703;-71
2023/09/10 06:43:55;;;;;;;14.53;13.27;;;;;;;27.91;44.40;96440.34;4968687;28;20181;-71
2023/09/10 06:46:20;;;;;;;30.63;15.90;;;;;;;27.94;43.67;96438.13;4969703;28;20536;-71
2023/09/10 06:48:46;;;;;;;34.00;18.23;;;;;;;27.76;44.70;96454.53;4969453;28;20177;-71
2023/09/10 06:51:11;;;;;;;39.60;16.07;;;;;;;28.02;44.02;96448.06;4969185;28;20279;-71
2023/09/10 06:53:37;;;;;;;23.10;13.63;;;;;;;28.12;43.73;96447.84;4969096;28;20235;-68
2023/09/10 06:56:02;;;;;;;29.77;15.33;;;;;;;28.35;43.70;96454.16;4968444;28;21089;-71
2023/09/10 06:58:28;;;;;;;19.43;12.40;;;;;;;28.28;43.36;96454.00;4971033;28;20181;-70
2023/09/10 07:00:53;;;;;;;13.30;12.10;;;;;;;28.41;43.44;96450.72;4973501;28;20203;-70
2023/09/10 07:03:19;;;;;;;15.73;12.40;;;;;;;28.58;42.50;96458.75;4971340;28;20216;-70
2023/09/10 07:05:44;;;;;;;13.20;11.53;;;;;;;28.68;42.90;96460.22;4968889;28;20674;-70
2023/09/10 07:08:13;;;;;;;15.40;13.17;;;;;;;28.73;42.84;96461.56;4980816;28;20182;-70
2023/09/10 07:10:39;;;;;;;13.30;12.13;;;;;;;28.34;43.40;96457.84;4974577;28;20219;-70
2023/09/10 07:13:05;;;;;;;15.60;13.20;;;;;;;28.63;42.83;96462.63;4972922;28;20499;-70
2023/09/10 07:15:35;;;;;;;13.87;12.57;;;;;;;28.54;42.69;96465.53;4968585;28;20448;-70
2023/09/10 07:18:00;;;;;;;15.70;14.23;;;;;;;28.66;43.01;96459.56;4976136;28;20439;-70
2023/09/10 07:20:26;;;;;;;17.47;13.13;;;;;;;28.71;42.37;96459.84;4978667;28;20490;-70
2023/09/10 07:22:51;;;;;;;12.73;11.57;;;;;;;28.72;42.44;96455.28;4966165;28;20723;-69
2023/09/10 07:25:17;;;;;;;14.10;12.67;;;;;;;28.77;42.71;96452.88;4966224;28;20191;-70
2023/09/10 07:27:42;;;;;;;21.90;14.40;;;;;;;29.04;42.16;96459.59;4970615;28;20951;-71
2023/09/10 07:30:08;;;;;;;16.97;15.17;;;;;;;28.81;42.29;96454.22;4969366;28;20207;-70
2023/09/10 07:32:34;;;;;;;16.60;15.03;;;;;;;28.42;43.57;96454.28;4969657;28;20292;-69
2023/09/10 07:34:59;;;;;;;14.63;13.23;;;;;;;28.65;43.40;96451.63;4971842;28;20261;-69
2023/09/10 07:37:24;;;;;;;16.10;14.63;;;;;;;28.85;42.59;96452.00;4963758;28;20893;-70
2023/09/10 07:39:50;;;;;;;12.03;10.97;;;;;;;29.01;41.98;96459.13;4963570;28;20192;-69
2023/09/10 07:42:15;;;;;;;16.53;15.00;;;;;;;29.09;42.08;96459.09;4966356;28;20294;-71
2023/09/10 07:44:41;;;;;;;11.87;10.70;;;;;;;29.13;42.13;96460.41;4970660;28;20584;-69
2023/09/10 07:47:08;;;;;;;16.33;14.70;;;;;;;29.27;41.92;96458.75;4970471;28;20239;-69
2023/09/10 07:49:33;;;;;;;22.50;17.53;;;;;;;29.19;42.39;96446.16;4966357;28;20562;-67
2023/09/10 07:51:58;;;;;;;14.60;13.07;;;;;;;29.05;42.68;96457.75;4966335;28;20443;-69
2023/09/10 07:54:24;;;;;;;15.00;12.07;;;;;;;29.24;41.85;96453.72;4974452;28;20836;-68
2023/09/10 07:56:49;;;;;;;17.23;13.50;;;;;;;29.44;41.64;96454.06;4970056;28;20192;-68
2023/09/10 07:59:15;;;;;;;19.13;14.03;;;;;;;29.50;41.36;96464.94;4967253;28;20247;-67
2023/09/10 08:01:40;;;;;;;15.60;14.00;;;;;;;29.57;41.92;96462.34;4965696;28;20177;-68
2023/09/10 08:04:06;;;;;;;19.63;17.43;;;;;;;29.32;42.44;96459.91;4978775;28;20642;-68
2023/09/10 08:06:32;;;;;;;21.70;16.13;;;;;;;29.54;42.48;96471.69;4991344;28;20220;-69
2023/09/10 08:08:57;;;;;;;12.80;11.43;;;;;;;29.58;41.47;96463.22;4970187;28;20317;-69
2023/09/10 08:11:23;;;;;;;15.27;13.77;;;;;;;29.66;41.53;96463.94;4980854;28;20610;-68
2023/09/10 08:13:50;;;;;;;16.33;13.00;;;;;;;29.92;41.33;96462.69;4965089;28;20189;-69
2023/09/10 08:16:16;;;;;;;14.10;12.00;;;;;;;29.72;41.89;96468.66;4967088;28;20218;-68
2023/09/10 08:18:42;;;;;;;13.93;12.50;;;;;;;29.84;41.66;96470.91;4966110;28;20444;-68
2023/09/10 08:21:08;;;;;;;13.87;12.47;;;;;;;29.73;41.74;96461.38;4965211;28;20436;-66
2023/09/10 08:23:33;;;;;;;21.37;14.10;;;;;;;29.82;41.59;96462.13;4965632;28;20359;-68
2023/09/10 08:25:58;;;;;;;15.30;13.30;;;;;;;29.83;41.64;96464.63;4971179;28;20211;-68
2023/09/10 08:28:24;;;;;;;15.53;14.07;;;;;;;29.82;41.58;96459.44;4976083;28;20184;-67
2023/09/10 08:30:49;;;;;;;16.97;15.27;;;;;;;29.62;43.13;96457.22;4972560;28;20164;-68
2023/09/10 08:33:15;;;;;;;18.80;17.30;;;;;;;28.87;44.78;96474.28;4960790;28;20212;-68
2023/09/10 08:35:46;;;;;;;18.20;16.33;;;;;;;29.59;43.90;96468.41;4965221;28;20180;-67
2023/09/10 08:38:12;;;;;;;18.47;16.70;;;;;;;29.32;44.40;96462.59;4966572;28;20181;-68
2023/09/10 08:40:49;;;;;;;19.77;13.33;;;;;;;29.63;43.29;96458.09;4965918;28;20932;-68
2023/09/10 08:43:18;;;;;;;24.00;17.07;;;;;;;29.78;43.96;96464.38;4964437;28;20208;-68
2023/09/10 08:45:43;;;;;;;19.43;17.73;;;;;;;29.41;44.80;96470.63;4966722;28;20432;-69
2023/09/10 08:48:10;;;;;;;19.60;15.90;;;;;;;29.83;43.60;96453.81;4966214;28;20436;-68
2023/09/10 08:50:36;;;;;;;15.40;14.00;;;;;;;29.82;43.24;96456.72;4968408;28;20179;-68
2023/09/10 08:53:05;;;;;;;14.00;12.77;;;;;;;30.13;42.18;96454.66;4969000;28;20559;-67
2023/09/10 08:55:31;;;;;;;15.30;13.73;;;;;;;30.36;42.21;96459.13;4973960;28;20423;-70
2023/09/10 08:57:57;;;;;;;13.63;12.33;;;;;;;30.21;42.18;96453.69;4971480;28;20831;-69
2023/09/10 09:00:23;;;;;;;14.83;13.53;;;;;;;30.25;41.68;96454.16;4969380;28;20230;-68
2023/09/10 09:02:49;;;;;;;15.63;13.50;;;;;;;30.28;41.70;96459.22;4971649;28;20463;-67
2023/09/10 09:05:15;;;;;;;21.73;19.83;;;;;;;30.31;43.07;96450.75;4976748;28;20435;-68
2023/09/10 09:07:57;;;;;;;14.40;13.00;;;;;;;30.08;42.80;96446.25;4969477;28;20193;-67
2023/09/10 09:10:26;;;;;;;15.53;14.00;;;;;;;29.87;43.38;96448.88;4972890;28;20567;-68
2023/09/10 09:12:56;;;;;;;16.43;14.80;;;;;;;29.85;43.64;96448.22;4969045;28;20463;-69
2023/09/10 09:15:23;;;;;;;18.10;16.40;;;;;;;30.05;43.71;96451.19;4970391;28;20546;-69
2023/09/10 09:17:50;;;;;;;20.20;18.50;;;;;;;30.01;44.13;96450.75;4961272;28;20453;-68
2023/09/10 09:20:17;;;;;;;20.40;14.87;;;;;;;30.27;42.90;96442.16;4965472;28;20436;-68
2023/09/10 09:22:47;;;;;;;33.90;17.50;;;;;;;30.48;42.53;96451.34;4966653;28;20464;-68
2023/09/10 09:25:14;;;;;;;19.90;16.70;;;;;;;30.39;43.11;96442.50;4965594;28;20496;-68
2023/09/10 09:27:40;;;;;;;21.40;19.50;;;;;;;29.30;45.71;96453.00;4966866;28;20487;-68
2023/09/10 09:30:07;;;;;;;22.67;20.47;;;;;;;28.96;46.77;96453.41;4968741;28;20431;-68
2023/09/10 09:32:35;;;;;;;21.00;18.90;;;;;;;28.55;48.79;96448.31;4964805;28;20429;-68
2023/09/10 09:35:00;;;;;;;21.13;19.07;;;;;;;28.85;47.41;96444.72;4968907;28;20522;-67
2023/09/10 09:37:26;;;;;;;18.87;17.13;;;;;;;28.92;47.69;96434.88;4968993;28;20535;-69
2023/09/10 09:39:51;;;;;;;20.23;15.00;;;;;;;29.61;45.86;96435.78;4964452;28;20666;-69
2023/09/10 09:42:16;;;;;;;17.90;15.10;;;;;;;30.03;44.09;96431.63;4968553;28;20709;-68
2023/09/10 09:44:44;;;;;;;19.60;13.70;;;;;;;29.79;44.81;96425.47;4967697;28;20243;-68
2023/09/10 09:47:12;;;;;;;24.73;16.90;;;;;;;29.71;44.56;96429.09;4964329;28;20201;-69
2023/09/10 09:49:47;;;;;;;17.50;16.10;;;;;;;29.22;46.42;96434.16;4966631;28;20436;-69
2023/09/10 09:52:12;;;;;;;15.70;14.20;;;;;;;29.24;46.27;96438.34;4966031;28;20436;-69
2023/09/10 09:54:38;;;;;;;17.37;15.33;;;;;;;29.71;45.00;96434.50;4967861;28;20498;-68
2023/09/10 09:57:04;;;;;;;15.10;13.80;;;;;;;30.24;44.11;96430.81;4963412;28;20263;-69
2023/09/10 09:59:34;;;;;;;16.67;13.50;;;;;;;30.55;43.38;96422.47;4965183;28;20177;-68
2023/09/10 10:02:00;;;;;;;14.33;13.10;;;;;;;30.77;42.64;96423.31;4965120;28;21182;-68
2023/09/10 10:04:25;;;;;;;15.93;13.33;;;;;;;30.74;42.97;96418.28;4967973;28;20428;-68
2023/09/10 10:06:51;;;;;;;15.97;14.27;;;;;;;30.79;43.12;96424.81;4963305;28;20212;-68
2023/09/10 10:09:19;;;;;;;16.17;13.80;;;;;;;30.79;42.93;96422.09;4962349;28;20180;-68
2023/09/10 10:11:44;;;;;;;16.07;14.77;;;;;;;29.96;44.69;96423.41;4968342;28;20211;-68
2023/09/10 10:14:11;;;;;;;17.50;16.00;;;;;;;29.12;46.27;96435.25;4965933;28;20460;-68
2023/09/10 10:16:37;;;;;;;14.77;13.57;;;;;;;29.45;46.46;96434.09;4972855;28;20253;-68
2023/09/10 10:19:03;;;;;;;15.83;14.17;;;;;;;29.99;45.72;96420.31;4971423;28;20739;-69
2023/09/10 10:21:29;;;;;;;15.10;13.57;;;;;;;30.24;44.59;96426.25;4969418;28;20467;-68
2023/09/10 10:23:56;;;;;;;16.23;14.73;;;;;;;29.78;45.47;96417.53;4979854;28;20241;-68
2023/09/10 10:26:22;;;;;;;17.63;16.07;;;;;;;29.17;47.07;96425.75;4975826;28;20447;-68
2023/09/10 10:28:51;;;;;;;16.10;14.70;;;;;;;28.97;46.91;96411.91;4966665;28;20431;-68
2023/09/10 10:31:28;;;;;;;14.80;13.47;;;;;;;29.57;46.26;96405.56;4968563;28;20446;-68
2023/09/10 10:34:09;;;;;;;16.53;15.23;;;;;;;29.21;47.03;96417.09;4962601;28;20430;-69
2023/09/10 10:36:59;;;;;;;14.13;12.90;;;;;;;29.77;45.66;96402.34;4979444;28;20451;-72
2023/09/10 10:40:08;;;;;;;16.13;14.23;;;;;;;30.12;44.77;96396.16;4962477;28;20428;-69
2023/09/10 10:43:03;;;;;;;13.77;12.60;;;;;;;30.36;44.29;96391.44;4965835;28;21027;-70
2023/09/10 10:45:30;;;;;;;14.60;13.30;;;;;;;30.43;44.40;96388.78;4967412;28;20417;-71
2023/09/10 10:48:00;;;;;;;14.90;13.57;;;;;;;30.32;44.19;96384.72;4968956;28;20459;-69
2023/09/10 10:50:27;;;;;;;15.67;14.07;;;;;;;30.35;44.02;96387.88;4967868;28;20424;-71
2023/09/10 10:52:59;;;;;;;14.50;13.20;;;;;;;30.64;44.03;96385.25;4968009;28;20420;-70
2023/09/10 10:55:26;;;;;;;16.03;14.43;;;;;;;30.69;43.60;96382.81;4967854;28;20413;-71
2023/09/10 10:57:53;;;;;;;12.60;11.60;;;;;;;30.68;43.68;96381.97;4967949;28;20432;-70
2023/09/10 11:00:20;;;;;;;12.43;11.50;;;;;;;30.66;43.97;96384.03;4967798;28;20416;-71
2023/09/10 11:02:48;;;;;;;14.57;13.30;;;;;;;30.14;44.98;96382.41;4967554;28;20623;-71
2023/09/10 11:05:14;;;;;;;20.13;13.03;;;;;;;30.35;44.27;96377.03;4967984;28;20413;-69
2023/09/10 11:07:39;;;;;;;13.50;12.40;;;;;;;30.27;44.54;96382.59;4967528;28;21025;-69
2023/09/10 11:10:41;;;;;;;13.30;12.20;;;;;;;29.90;45.33;96380.88;4968006;28;20183;-70
2023/09/10 11:13:10;;;;;;;12.70;11.70;;;;;;;30.02;44.96;96378.50;4966930;28;20192;-71
2023/09/10 11:15:56;;;;;;;13.67;12.37;;;;;;;30.55;44.13;96377.28;4978032;28;20926;-69